Latest Weather Observations for St Kilda Harbour RMYS

IDV60901

Issued at 5:21 am EDT Monday 5 December 2022 (issued every 10 minutes, with the page automatically refreshed every 10 minutes)

About weather observations | Map of Melbourne area stations | Latest observations for Melbourne area | Other Formats
Station Details ID: 086220 Name: ST KILDA HARBOUR - RMYS Lat: -37.86 Lon: 144.96 Height: 6.4 m
Data from the previous 72 hours. | See also: Recent months at St Kilda Harbour RMYS
Date/Time
EDT
Temp
°C
App
Temp
°C
Dew
Point
°C
Rel
Hum
%
Delta-T
°C
Wind Press
QNH
hPa
Press
MSL
hPa
Rain since
9am
mm
Dir  Spd
km/h
Gust
km/h
Spd
kts
Gust
kts
05/05:00am - - - - - WSW 33 43 18 23 - - -
05/04:30am - - - - - W 39 52 21 28 - - -
05/04:00am - - - - - WSW 30 35 16 19 - - -
05/03:30am - - - - - WSW 37 44 20 24 - - -
05/03:00am - - - - - WSW 44 50 24 27 - - -
05/02:30am - - - - - SW 30 33 16 18 - - -
05/02:00am - - - - - SSW 15 17 8 9 - - -
05/01:30am - - - - - SSW 22 33 12 18 - - -
05/01:00am - - - - - S 22 33 12 18 - - -
05/12:30am - - - - - SSW 30 37 16 20 - - -
05/12:00am - - - - - SSW 32 43 17 23 - - -
 
Date/Time
EDT
Temp
°C
App
Temp
°C
Dew
Point
°C
Rel
Hum
%
Delta-T
°C
Wind Press
QNH
hPa
Press
MSL
hPa
Rain since
9am
mm
Dir  Spd
km/h
Gust
km/h
Spd
kts
Gust
kts
04/11:48pm - - - - - WSW 33 56 18 30 - - -
04/11:44pm - - - - - NW 22 54 12 29 - - -
04/11:30pm - - - - - NW 20 26 11 14 - - -
04/11:00pm - - - - - NNW 26 35 14 19 - - -
04/10:30pm - - - - - N 20 30 11 16 - - -
04/10:00pm - - - - - NNE 19 28 10 15 - - -
04/09:30pm - - - - - N 11 15 6 8 - - -
04/09:00pm - - - - - N 15 19 8 10 - - -
04/08:30pm - - - - - NW 6 9 3 5 - - -
04/08:00pm - - - - - W 13 20 7 11 - - -
04/07:30pm - - - - - NNW 13 22 7 12 - - -
04/07:00pm - - - - - NNW 17 24 9 13 - - -
04/06:30pm - - - - - NNW 19 26 10 14 - - -
04/06:00pm - - - - - NNW 17 28 9 15 - - -
04/05:30pm - - - - - NW 17 28 9 15 - - -
04/05:00pm - - - - - NNW 20 32 11 17 - - -
04/04:30pm - - - - - NNW 19 37 10 20 - - -
04/04:00pm - - - - - NW 20 30 11 16 - - -
04/03:30pm - - - - - NNW 20 32 11 17 - - -
04/03:00pm - - - - - NW 20 35 11 19 - - -
04/02:30pm - - - - - NNW 26 35 14 19 - - -
04/02:17pm - - - - - N 28 52 15 28 - - -
04/02:00pm - - - - - NNW 30 48 16 26 - - -
04/01:53pm - - - - - NNW 28 48 15 26 - - -
04/01:30pm - - - - - NNW 26 43 14 23 - - -
04/01:00pm - - - - - N 28 43 15 23 - - -
04/12:30pm - - - - - NW 28 41 15 22 - - -
04/12:20pm - - - - - NW 28 48 15 26 - - -
04/12:00pm - - - - - NW 32 48 17 26 - - -
04/11:40am - - - - - N 28 46 15 25 - - -
04/11:30am - - - - - NNW 26 37 14 20 - - -
04/11:00am - - - - - NNW 32 54 17 29 - - -
04/10:51am - - - - - NNW 33 54 18 29 - - -
04/10:30am - - - - - NNW 24 39 13 21 - - -
04/10:00am - - - - - NNW 26 39 14 21 - - -
04/09:30am - - - - - NNW 22 28 12 15 - - -
04/09:00am - - - - - N 15 22 8 12 - - -
04/08:30am - - - - - NNE 17 24 9 13 - - -
04/08:00am - - - - - NNE 17 26 9 14 - - -
04/07:30am - - - - - NNE 17 28 9 15 - - -
04/07:00am - - - - - NNE 15 20 8 11 - - -
04/06:30am - - - - - NNE 17 22 9 12 - - -
04/06:00am - - - - - NNE 17 24 9 13 - - -
04/05:30am - - - - - NE 13 19 7 10 - - -
04/05:00am - - - - - NE 7 9 4 5 - - -
04/04:30am - - - - - NNE 2 6 1 3 - - -
04/04:00am - - - - - NNE 6 7 3 4 - - -
04/03:30am - - - - - N 2 2 1 1 - - -
04/03:00am - - - - - WSW 6 7 3 4 - - -
04/02:30am - - - - - W 4 7 2 4 - - -
04/02:00am - - - - - WNW 7 9 4 5 - - -
04/01:30am - - - - - WNW 9 11 5 6 - - -
04/01:00am - - - - - W 9 11 5 6 - - -
04/12:30am - - - - - WSW 22 28 12 15 - - -
04/12:00am - - - - - WSW 15 17 8 9 - - -
 
Date/Time
EDT
Temp
°C
App
Temp
°C
Dew
Point
°C
Rel
Hum
%
Delta-T
°C
Wind Press
QNH
hPa
Press
MSL
hPa
Rain since
9am
mm
Dir  Spd
km/h
Gust
km/h
Spd
kts
Gust
kts
03/11:30pm - - - - - W 4 7 2 4 - - -
03/11:00pm - - - - - S 4 6 2 3 - - -
03/10:30pm - - - - - ESE 6 9 3 5 - - -
03/10:00pm - - - - - SSE 9 13 5 7 - - -
03/09:30pm - - - - - ESE 13 19 7 10 - - -
03/09:00pm - - - - - ESE 13 19 7 10 - - -
03/08:30pm - - - - - SE 17 20 9 11 - - -
03/08:00pm - - - - - SE 19 22 10 12 - - -
03/07:30pm - - - - - S 17 19 9 10 - - -
03/07:00pm - - - - - SSW 20 26 11 14 - - -
03/06:30pm - - - - - S 17 19 9 10 - - -
03/06:00pm - - - - - S 22 26 12 14 - - -
03/05:30pm - - - - - S 26 28 14 15 - - -
03/05:00pm - - - - - SSE 24 26 13 14 - - -
03/04:30pm - - - - - S 26 28 14 15 - - -
03/04:00pm - - - - - SSE 20 22 11 12 - - -
03/03:30pm - - - - - S 20 24 11 13 - - -
03/03:00pm - - - - - S 20 24 11 13 - - -
03/02:30pm - - - - - S 19 22 10 12 - - -
03/02:00pm - - - - - S 24 30 13 16 - - -
03/01:30pm - - - - - S 20 22 11 12 - - -
03/01:00pm - - - - - NW 13 19 7 10 - - -
03/12:30pm - - - - - NNW 11 26 6 14 - - -
03/12:00pm - - - - - NNW 13 20 7 11 - - -
03/11:30am - - - - - NNW 15 26 8 14 - - -
03/11:00am - - - - - NNW 17 28 9 15 - - -
03/10:30am - - - - - N 13 20 7 11 - - -
03/10:00am - - - - - NE 9 22 5 12 - - -
03/09:30am - - - - - NNE 9 15 5 8 - - -
03/09:00am - - - - - NE 9 15 5 8 - - -
03/08:30am - - - - - NE 9 17 5 9 - - -
03/08:00am - - - - - NNE 13 19 7 10 - - -
03/07:30am - - - - - NE 7 11 4 6 - - -
03/07:00am - - - - - NE 7 13 4 7 - - -
03/06:30am - - - - - NE 6 7 3 4 - - -
03/06:00am - - - - - NNE 4 6 2 3 - - -
03/05:30am - - - - - NE 4 4 2 2 - - -
03/05:00am - - - - - NNE 4 4 2 2 - - -
03/04:30am - - - - - NNW 7 9 4 5 - - -
03/04:00am - - - - - NNW 7 11 4 6 - - -
03/03:30am - - - - - NW 9 11 5 6 - - -
03/03:00am - - - - - NNW 9 13 5 7 - - -
03/02:30am - - - - - NW 11 13 6 7 - - -
03/02:00am - - - - - NW 13 17 7 9 - - -
03/01:30am - - - - - WNW 13 17 7 9 - - -
03/01:00am - - - - - WNW 17 19 9 10 - - -
03/12:30am - - - - - WNW 15 17 8 9 - - -
03/12:00am - - - - - W 17 20 9 11 - - -
 
Date/Time
EDT
Temp
°C
App
Temp
°C
Dew
Point
°C
Rel
Hum
%
Delta-T
°C
Wind Press
QNH
hPa
Press
MSL
hPa
Rain since
9am
mm
Dir  Spd
km/h
Gust
km/h
Spd
kts
Gust
kts
02/11:30pm - - - - - WSW 20 24 11 13 - - -
02/11:00pm - - - - - WSW 20 24 11 13 - - -
02/10:30pm - - - - - WSW 20 24 11 13 - - -
02/10:00pm - - - - - WSW 17 20 9 11 - - -
02/09:30pm - - - - - SW 13 15 7 8 - - -
02/09:00pm - - - - - S 13 17 7 9 - - -
02/08:30pm - - - - - S 20 22 11 12 - - -
02/08:00pm - - - - - SSW 22 28 12 15 - - -
02/07:30pm - - - - - S 22 24 12 13 - - -
02/07:00pm - - - - - SSW 20 24 11 13 - - -
02/06:30pm - - - - - SSW 22 24 12 13 - - -
02/06:00pm - - - - - SSW 22 26 12 14 - - -
02/05:30pm - - - - - SSW 24 28 13 15 - - -
02/05:00pm - - - - - SSW 28 32 15 17 - - -
02/04:30pm - - - - - S 26 30 14 16 - - -
02/04:00pm - - - - - SSW 26 28 14 15 - - -
02/03:30pm - - - - - SSW 19 22 10 12 - - -
02/03:00pm - - - - - SSW 19 20 10 11 - - -
02/02:30pm - - - - - SSW 20 22 11 12 - - -
02/02:00pm - - - - - SSW 17 20 9 11 - - -
02/01:30pm - - - - - SSW 20 24 11 13 - - -
02/01:00pm - - - - - SSW 17 20 9 11 - - -
02/12:30pm - - - - - SSW 15 17 8 9 - - -
02/12:00pm - - - - - SW 13 17 7 9 - - -
02/11:30am - - - - - SW 9 11 5 6 - - -
02/11:00am - - - - - SW 11 15 6 8 - - -
02/10:30am - - - - - SW 13 17 7 9 - - -
02/10:00am - - - - - WSW 9 11 5 6 - - -
02/09:30am - - - - - WSW 7 11 4 6 - - -
02/09:00am - - - - - SSE 4 9 2 5 - - -
02/08:30am - - - - - SSW 6 9 3 5 - - -
02/08:00am - - - - - SE 7 11 4 6 - - -
02/07:30am - - - - - SE 7 11 4 6 - - -
02/07:00am - - - - - SE 7 9 4 5 - - -
02/06:30am - - - - - SE 7 9 4 5 - - -
02/06:00am - - - - - ESE 6 9 3 5 - - -
02/05:30am - - - - - ESE 6 9 3 5 - - -

Latest Capital City Observations: Canberra | Sydney | Melbourne | Brisbane | Adelaide | Perth | Hobart | Darwin

Other formats

Comma delimited format used in spreadsheet applications
http://www.bom.gov.au/fwo/IDV60901/IDV60901.95864.axf

JavaScript Object Notation format (JSON) in row-major order
http://www.bom.gov.au/fwo/IDV60901/IDV60901.95864.json

Data quality

Most of these data are generated automatically and are frequently updated. Quality checks on data are not normally performed. It is possible for incorrect values to appear. Refer to information at About Latest Weather Observations and please check the disclaimer before using these data.